createdAt,value
2023-06-09T00:02:09.173Z,100068.83
2023-06-09T00:04:39.886Z,100067.86
2023-06-09T00:07:10.461Z,100067.20
2023-06-09T00:09:41.466Z,100067.41
2023-06-09T00:12:13.511Z,100064.48
2023-06-09T00:14:44.130Z,100065.25
2023-06-09T00:17:15.350Z,100062.36
2023-06-09T00:19:47.785Z,100063.09
2023-06-09T00:22:18.618Z,100066.42
2023-06-09T00:24:49.228Z,100069.80
2023-06-09T00:27:19.815Z,100069.86
2023-06-09T00:29:50.332Z,100064.52
2023-06-09T00:32:21.560Z,100065.94
2023-06-09T00:34:53.438Z,100067.20
2023-06-09T00:37:23.998Z,100069.51
2023-06-09T00:39:54.490Z,100071.65
2023-06-09T00:42:25.095Z,100069.27
2023-06-09T00:44:55.956Z,100067.55
2023-06-09T00:47:27.625Z,100066.19
2023-06-09T00:49:58.215Z,100063.96
2023-06-09T00:52:29.267Z,100063.50
2023-06-09T00:54:59.856Z,100065.10
2023-06-09T00:57:34.981Z,100060.25
2023-06-09T01:00:07.899Z,100059.59
2023-06-09T01:02:39.406Z,100059.30
2023-06-09T01:05:10.908Z,100061.42
2023-06-09T01:07:55.987Z,100060.06
2023-06-09T01:10:33.958Z,100057.16
2023-06-09T01:13:11.344Z,100058.08
2023-06-09T01:15:45.944Z,100063.31
2023-06-09T01:18:21.878Z,100062.52
2023-06-09T01:21:13.973Z,100064.82
2023-06-09T01:23:55.499Z,100061.90
2023-06-09T01:26:31.025Z,100059.70
2023-06-09T01:29:04.382Z,100055.91
2023-06-09T01:31:37.471Z,100055.41
2023-06-09T01:34:08.679Z,100056.83
2023-06-09T01:36:39.264Z,100053.37
2023-06-09T01:39:10.993Z,100054.26
2023-06-09T01:41:42.155Z,100052.36
2023-06-09T01:44:13.396Z,100053.97
2023-06-09T01:46:44.659Z,100050.52
2023-06-09T01:49:21.053Z,100048.30
2023-06-09T01:51:54.825Z,100052.50
2023-06-09T01:54:35.366Z,100048.52
2023-06-09T01:57:11.703Z,100051.67
2023-06-09T01:59:49.744Z,100058.48
2023-06-09T02:02:23.483Z,100058.86
2023-06-09T02:04:56.112Z,100057.51
2023-06-09T02:07:27.617Z,100057.20
2023-06-09T02:09:57.220Z,100053.25
2023-06-09T02:12:35.617Z,100055.21
2023-06-09T02:15:09.083Z,100055.58
2023-06-09T02:17:40.776Z,100056.66
2023-06-09T02:20:13.695Z,100057.39
2023-06-09T02:22:44.262Z,100051.69
2023-06-09T02:25:15.260Z,100049.30
2023-06-09T02:27:46.817Z,100045.85
2023-06-09T02:30:17.695Z,100048.12
2023-06-09T02:32:49.063Z,100050.55
2023-06-09T02:35:19.654Z,100051.98
2023-06-09T02:37:50.393Z,100050.08
2023-06-09T02:40:21.220Z,100050.10
2023-06-09T02:42:51.798Z,100051.52
2023-06-09T02:45:22.937Z,100049.44
2023-06-09T02:47:54.088Z,100049.27
2023-06-09T02:50:25.593Z,100048.41
2023-06-09T02:53:00.324Z,100046.69
2023-06-09T02:55:33.652Z,100040.96
2023-06-09T02:58:04.411Z,100041.82
2023-06-09T03:00:36.939Z,100041.66
2023-06-09T03:03:09.316Z,100041.48
2023-06-09T03:05:45.343Z,100044.82
2023-06-09T03:08:16.776Z,100050.74
2023-06-09T03:10:47.952Z,100051.80
2023-06-09T03:13:19.353Z,100053.06
2023-06-09T03:15:52.496Z,100055.86
2023-06-09T03:18:23.536Z,100060.21
2023-06-09T03:24:53.738Z,100056.45
2023-06-09T03:27:23.605Z,100048.48
2023-06-09T03:29:54.653Z,100045.22
2023-06-09T03:32:25.648Z,100045.91
2023-06-09T03:34:56.434Z,100046.79
2023-06-09T03:37:27.026Z,100046.63
2023-06-09T03:39:57.983Z,100047.48
2023-06-09T03:42:29.431Z,100051.11
2023-06-09T03:45:01.139Z,100049.17
2023-06-09T03:47:31.157Z,100049.19
2023-06-09T03:50:02.441Z,100044.54
2023-06-09T03:52:33.703Z,100047.28
2023-06-09T03:55:04.803Z,100051.96
2023-06-09T03:57:37.330Z,100055.95
2023-06-09T04:00:11.224Z,100056.64
2023-06-09T04:02:45.599Z,100065.17
2023-06-09T04:05:17.797Z,100065.77
2023-06-09T04:07:49.589Z,100065.59
2023-06-09T04:10:20.668Z,100064.56
2023-06-09T04:12:52.647Z,100067.01
2023-06-09T04:15:23.440Z,100063.36
2023-06-09T04:17:55.996Z,100060.75
2023-06-09T04:20:30.584Z,100060.23
2023-06-09T04:23:02.100Z,100059.70
2023-06-09T04:25:37.074Z,100057.27
2023-06-09T04:28:13.706Z,100058.12
2023-06-09T04:30:45.546Z,100057.08
2023-06-09T04:33:17.583Z,100057.59
2023-06-09T04:35:56.061Z,100061.20
2023-06-09T04:38:28.352Z,100060.46
2023-06-09T04:41:02.637Z,100062.54
2023-06-09T04:43:34.718Z,100063.92
2023-06-09T04:46:07.196Z,100065.30
2023-06-09T04:48:37.861Z,100064.78
2023-06-09T04:51:08.662Z,100064.93
2023-06-09T04:53:46.454Z,100071.14
2023-06-09T04:56:17.944Z,100071.64
2023-06-09T04:58:48.641Z,100073.34
2023-06-09T05:01:23.256Z,100073.98
2023-06-09T05:03:54.320Z,100076.39
2023-06-09T05:06:25.400Z,100079.85
2023-06-09T05:08:56.573Z,100079.83
2023-06-09T05:16:10.638Z,100080.58
2023-06-09T05:18:41.839Z,100083.50
2023-06-09T05:21:14.211Z,100086.60
2023-06-09T05:23:44.916Z,100082.23
2023-06-09T05:26:16.224Z,100084.64
2023-06-09T05:28:46.925Z,100086.54
2023-06-09T05:31:18.865Z,100086.67
2023-06-09T05:33:49.444Z,100087.16
2023-06-09T05:36:20.409Z,100084.73
2023-06-09T05:38:54.540Z,100083.86
2023-06-09T05:41:25.033Z,100084.21
2023-06-09T05:43:58.888Z,100087.33
2023-06-09T05:46:29.732Z,100091.14
2023-06-09T05:49:00.349Z,100092.86
2023-06-09T05:51:30.868Z,100092.51
2023-06-09T05:54:01.766Z,100097.52
2023-06-09T05:56:32.657Z,100097.17
2023-06-09T05:59:05.319Z,100093.52
2023-06-09T06:01:36.716Z,100097.33
2023-06-09T06:04:07.384Z,100100.26
2023-06-09T06:06:40.080Z,100102.66
2023-06-09T06:09:11.011Z,100101.23
2023-06-09T06:11:41.580Z,100096.36
2023-06-09T06:14:12.087Z,100099.64
2023-06-09T06:16:42.651Z,100103.79
2023-06-09T06:19:16.794Z,100100.64
2023-06-09T06:21:48.546Z,100102.35
2023-06-09T06:24:19.157Z,100104.94
2023-06-09T06:26:49.778Z,100106.85
2023-06-09T06:29:20.379Z,100107.86
2023-06-09T06:31:51.086Z,100108.52
2023-06-09T06:34:21.775Z,100104.69
2023-06-09T06:36:52.305Z,100102.38
2023-06-09T06:39:23.282Z,100104.77
2023-06-09T06:41:53.803Z,100106.28
2023-06-09T06:49:14.372Z,100112.92
2023-06-09T06:51:44.867Z,100113.52
2023-06-09T06:54:16.973Z,100118.15
2023-06-09T06:56:47.477Z,100111.50
2023-06-09T06:59:18.003Z,100112.48
2023-06-09T07:01:48.590Z,100111.91
2023-06-09T07:04:19.146Z,100107.54
2023-06-09T07:06:49.683Z,100105.95
2023-06-09T07:09:20.585Z,100109.02
2023-06-09T07:11:51.157Z,100115.05
2023-06-09T07:14:21.794Z,100116.05
2023-06-09T07:16:52.634Z,100117.92
2023-06-09T07:19:23.301Z,100117.73
2023-06-09T07:21:54.044Z,100121.16
2023-06-09T07:24:24.562Z,100125.28
2023-06-09T07:26:55.499Z,100126.96
2023-06-09T07:29:26.020Z,100128.30
2023-06-09T07:31:56.919Z,100128.77
2023-06-09T07:34:28.546Z,100126.41
2023-06-09T07:37:00.536Z,100123.77
2023-06-09T07:39:31.137Z,100124.59
2023-06-09T07:42:01.647Z,100121.08
2023-06-09T07:44:32.532Z,100122.90
2023-06-09T07:47:03.655Z,100121.13
2023-06-09T07:49:34.229Z,100119.37
2023-06-09T07:52:20.439Z,100121.05
2023-06-09T07:54:55.101Z,100120.45
2023-06-09T07:57:25.574Z,100120.76
2023-06-09T07:59:56.057Z,100125.75
2023-06-09T08:02:26.533Z,100126.76
2023-06-09T08:04:57.163Z,100127.04
2023-06-09T08:07:27.707Z,100123.85
2023-06-09T08:09:59.083Z,100123.28
2023-06-09T08:12:29.610Z,100119.24
2023-06-09T08:15:00.176Z,100121.13
2023-06-09T08:17:30.864Z,100117.80
2023-06-09T08:20:01.443Z,100114.07
2023-06-09T08:22:31.912Z,100120.28
2023-06-09T08:25:03.308Z,100117.30
2023-06-09T08:27:33.854Z,100119.35
2023-06-09T08:30:05.067Z,100121.58
2023-06-09T08:32:37.535Z,100123.61
2023-06-09T08:35:11.384Z,100123.40
2023-06-09T08:37:43.291Z,100124.25
2023-06-09T08:40:15.396Z,100122.84
2023-06-09T08:42:47.916Z,100124.39
2023-06-09T08:45:20.793Z,100126.45
2023-06-09T08:47:55.839Z,100125.06
2023-06-09T08:50:30.037Z,100128.70
2023-06-09T08:53:02.106Z,100129.55
2023-06-09T08:55:32.692Z,100128.16
2023-06-09T08:58:04.725Z,100131.81
2023-06-09T09:00:35.272Z,100130.95
2023-06-09T09:03:07.403Z,100131.96
2023-06-09T09:05:38.344Z,100130.38
2023-06-09T09:08:09.960Z,100129.89
2023-06-09T09:10:41.944Z,100131.70
2023-06-09T09:13:13.483Z,100130.90
2023-06-09T09:15:52.029Z,100128.92
2023-06-09T09:18:22.609Z,100129.55
2023-06-09T09:20:53.121Z,100128.05
2023-06-09T09:23:32.916Z,100125.77
2023-06-09T09:26:05.070Z,100129.73
2023-06-09T09:28:42.828Z,100124.84
2023-06-09T09:31:12.458Z,100128.81
2023-06-09T09:33:49.574Z,100126.06
2023-06-09T09:36:22.253Z,100123.09
2023-06-09T09:38:52.879Z,100123.27
2023-06-09T09:41:23.406Z,100121.34
2023-06-09T09:43:59.387Z,100118.53
2023-06-09T09:46:36.871Z,100117.49
2023-06-09T09:49:08.493Z,100111.12
2023-06-09T09:51:38.399Z,100109.10
2023-06-09T09:54:10.338Z,100101.92
2023-06-09T09:56:41.313Z,100100.95
2023-06-09T09:59:11.795Z,100092.16
2023-06-09T10:01:43.021Z,100094.01
2023-06-09T10:04:14.035Z,100099.34
2023-06-09T10:06:45.607Z,100095.46
2023-06-09T10:09:16.376Z,100092.14
2023-06-09T10:11:47.966Z,100093.48
2023-06-09T10:14:19.139Z,100090.50
2023-06-09T10:16:50.722Z,100089.45
2023-06-09T10:19:24.433Z,100085.42
2023-06-09T10:21:55.842Z,100080.86
2023-06-09T10:24:27.507Z,100078.73
2023-06-09T10:26:58.637Z,100072.05
2023-06-09T10:29:31.048Z,100070.92
2023-06-09T10:32:02.402Z,100067.90
2023-06-09T10:34:34.364Z,100058.76
2023-06-09T10:37:05.324Z,100055.69
2023-06-09T10:39:53.290Z,100051.58
2023-06-09T10:42:34.704Z,100048.52
2023-06-09T10:45:14.244Z,100047.17
2023-06-09T10:47:49.765Z,100047.97
2023-06-09T10:50:28.231Z,100047.54
2023-06-09T10:53:00.417Z,100047.46
2023-06-09T10:55:31.701Z,100049.55
2023-06-09T10:58:02.225Z,100044.83
2023-06-09T11:01:09.009Z,100041.67
2023-06-09T11:03:39.870Z,100036.98
2023-06-09T11:06:10.483Z,100037.70
2023-06-09T11:09:09.624Z,100037.95
2023-06-09T11:11:52.975Z,100044.45
2023-06-09T11:14:53.694Z,100051.46
2023-06-09T11:17:27.747Z,100072.63
2023-06-09T11:20:16.047Z,100106.00
2023-06-09T11:23:04.584Z,100144.44
2023-06-09T11:25:42.078Z,100167.31
2023-06-09T11:28:23.693Z,100166.84
2023-06-09T11:31:09.880Z,100152.52
2023-06-09T11:33:48.419Z,100139.98
2023-06-09T11:36:23.958Z,100117.66
2023-06-09T11:39:00.215Z,100105.11
2023-06-09T11:41:31.917Z,100098.03
2023-06-09T11:44:02.556Z,100100.73
2023-06-09T11:46:37.368Z,100099.59
2023-06-09T11:49:12.118Z,100098.77
2023-06-09T11:52:00.877Z,100087.14
2023-06-09T11:54:49.262Z,100075.93
2023-06-09T11:57:20.181Z,100071.17
2023-06-09T11:59:51.217Z,100064.16
2023-06-09T12:02:21.985Z,100060.63
2023-06-09T12:04:52.870Z,100054.45
2023-06-09T12:07:23.937Z,100057.09
2023-06-09T12:10:00.591Z,100059.92
2023-06-09T12:12:31.212Z,100062.64
2023-06-09T12:15:01.764Z,100070.72
2023-06-09T12:17:32.476Z,100071.48
2023-06-09T12:20:22.199Z,100073.61
2023-06-09T12:22:54.456Z,100072.60
2023-06-09T12:25:27.375Z,100069.67
2023-06-09T12:27:59.628Z,100064.83
2023-06-09T12:30:38.614Z,100067.92
2023-06-09T12:33:13.763Z,100069.10
2023-06-09T12:35:45.968Z,100070.30
2023-06-09T12:38:18.179Z,100070.61
2023-06-09T12:40:52.368Z,100064.34
2023-06-09T12:43:24.277Z,100065.69
2023-06-09T12:45:58.888Z,100068.30
2023-06-09T12:48:29.478Z,100069.02
2023-06-09T12:51:01.534Z,100068.86
2023-06-09T12:53:32.076Z,100070.86
2023-06-09T12:56:02.591Z,100069.94
2023-06-09T12:58:33.110Z,100070.77
2023-06-09T13:01:03.678Z,100069.83
2023-06-09T13:03:35.573Z,100073.45
2023-06-09T13:06:06.743Z,100069.74
2023-06-09T13:08:37.332Z,100064.65
2023-06-09T13:11:08.109Z,100062.78
2023-06-09T13:13:38.561Z,100062.84
2023-06-09T13:16:10.271Z,100060.11
2023-06-09T13:18:47.154Z,100057.45
2023-06-09T13:21:38.864Z,100053.31
2023-06-09T13:24:10.169Z,100048.36
2023-06-09T13:26:40.919Z,100049.28
2023-06-09T13:29:11.616Z,100046.61
2023-06-09T13:31:42.122Z,100039.63
2023-06-09T13:34:14.310Z,100039.02
2023-06-09T13:36:46.512Z,100032.47
2023-06-09T13:39:17.073Z,100035.20
2023-06-09T13:41:48.305Z,100033.90
2023-06-09T13:44:18.876Z,100031.70
2023-06-09T13:46:49.357Z,100027.95
2023-06-09T13:49:20.075Z,100023.06
2023-06-09T13:51:50.829Z,100020.11
2023-06-09T13:54:21.322Z,100018.39
2023-06-09T13:56:51.931Z,100016.28
2023-06-09T13:59:22.489Z,100014.25
2023-06-09T14:01:55.058Z,100012.91
2023-06-09T14:04:25.813Z,100015.07
2023-06-09T14:06:56.772Z,100015.65
2023-06-09T14:09:27.355Z,100010.10
2023-06-09T14:12:00.319Z,100003.65
2023-06-09T14:14:31.402Z,100000.07
2023-06-09T14:17:02.141Z,99997.23
2023-06-09T14:19:32.882Z,99992.81
2023-06-09T14:22:07.449Z,99990.54
2023-06-09T14:24:38.246Z,99988.80
2023-06-09T14:27:09.448Z,99988.63
2023-06-09T14:29:39.075Z,99984.52
2023-06-09T14:32:10.885Z,99985.80
2023-06-09T14:34:41.485Z,99982.88
2023-06-09T14:37:12.030Z,99979.99
2023-06-09T14:39:42.535Z,99975.37
2023-06-09T14:42:13.194Z,99977.41
2023-06-09T14:44:43.817Z,99978.66
2023-06-09T14:47:14.326Z,99981.99
2023-06-09T14:49:44.886Z,99985.16
2023-06-09T14:52:15.381Z,99984.14
2023-06-09T14:54:45.894Z,99987.65
2023-06-09T14:57:16.393Z,99988.20
2023-06-09T14:59:46.973Z,99990.50
2023-06-09T15:02:17.448Z,99991.42
2023-06-09T15:04:47.926Z,99994.01
2023-06-09T15:07:18.420Z,99991.03
2023-06-09T15:09:48.934Z,99989.47
2023-06-09T15:12:20.811Z,99980.60
2023-06-09T15:15:00.221Z,99976.09
2023-06-09T15:17:31.861Z,99974.89
2023-06-09T15:20:03.225Z,99973.85
2023-06-09T15:22:38.752Z,99970.38
2023-06-09T15:25:12.632Z,99968.59
2023-06-09T15:27:44.445Z,99967.52
2023-06-09T15:30:17.217Z,99967.32
2023-06-09T15:32:47.830Z,99967.14
2023-06-09T15:35:18.700Z,99965.04
2023-06-09T15:37:49.207Z,99964.51
2023-06-09T15:40:19.664Z,99964.31
2023-06-09T15:42:51.939Z,99964.89
2023-06-09T15:45:22.739Z,99963.09
2023-06-09T15:47:53.459Z,99961.16
2023-06-09T15:50:24.399Z,99960.79
2023-06-09T15:52:54.932Z,99966.35
2023-06-09T15:55:25.442Z,99961.27
2023-06-09T15:57:55.980Z,99958.80
2023-06-09T16:00:26.561Z,99956.30
2023-06-09T16:02:59.168Z,99954.64
2023-06-09T16:05:29.692Z,99955.12
2023-06-09T16:08:00.868Z,99953.73
2023-06-09T16:10:32.423Z,99954.25
2023-06-09T16:13:02.769Z,99956.89
2023-06-09T16:15:34.494Z,99956.91
2023-06-09T16:18:06.247Z,99958.58
2023-06-09T16:20:41.174Z,99958.15
2023-06-09T16:24:02.669Z,99957.20
2023-06-09T16:26:33.178Z,99952.24
2023-06-09T16:29:03.660Z,99945.52
2023-06-09T16:31:34.253Z,99943.15
2023-06-09T16:34:05.161Z,99943.91
2023-06-09T16:36:36.390Z,99943.24
2023-06-09T16:39:07.301Z,99946.59
2023-06-09T16:41:37.856Z,99946.77
2023-06-09T16:44:08.494Z,99949.83
2023-06-09T16:46:39.057Z,99957.80
2023-06-09T16:49:09.726Z,99958.30
2023-06-09T16:51:40.262Z,99968.23
2023-06-09T16:54:11.021Z,99973.98
2023-06-09T16:56:41.640Z,99982.51
2023-06-09T16:59:12.156Z,99985.11
2023-06-09T17:01:42.813Z,99988.39
2023-06-09T17:04:13.430Z,100014.46
2023-06-09T17:06:44.139Z,100079.05
2023-06-09T17:09:15.246Z,100078.20
2023-06-09T17:11:45.776Z,100081.75
2023-06-09T17:14:17.343Z,100081.54
2023-06-09T17:16:49.645Z,100083.77
2023-06-09T17:19:20.781Z,100095.06
2023-06-09T17:21:51.259Z,100105.88
2023-06-09T17:24:21.822Z,100106.93
2023-06-09T17:26:52.550Z,100106.45
2023-06-09T17:29:23.037Z,100103.20
2023-06-09T17:31:55.636Z,100097.34
2023-06-09T17:34:26.356Z,100091.98
2023-06-09T17:36:57.032Z,100081.20
2023-06-09T17:39:27.749Z,100076.66
2023-06-09T17:41:58.297Z,100075.58
2023-06-09T17:44:28.818Z,100076.30
2023-06-09T17:47:01.322Z,100069.79
2023-06-09T17:49:32.077Z,100072.46
2023-06-09T17:52:02.669Z,100073.91
2023-06-09T17:54:37.234Z,100070.32
2023-06-09T17:57:11.070Z,100061.85
2023-06-09T17:59:41.668Z,100058.77
2023-06-09T18:02:12.294Z,100058.64
2023-06-09T18:04:42.757Z,100052.58
2023-06-09T18:07:13.552Z,100050.30
2023-06-09T18:09:44.228Z,100045.95
2023-06-09T18:12:15.303Z,100046.31
2023-06-09T18:14:46.311Z,100043.73
2023-06-09T18:17:17.064Z,100049.12
2023-06-09T18:19:47.586Z,100048.77
2023-06-09T18:22:18.059Z,100053.58
2023-06-09T18:24:48.581Z,100057.39
2023-06-09T18:27:19.071Z,100058.06
2023-06-09T18:29:49.626Z,100066.23
2023-06-09T18:32:20.126Z,100067.11
2023-06-09T18:34:51.381Z,100070.23
2023-06-09T18:37:21.864Z,100065.92
2023-06-09T18:39:52.400Z,100069.39
2023-06-09T18:42:23.162Z,100063.14
2023-06-09T18:44:53.690Z,100062.99
2023-06-09T18:47:24.304Z,100061.83
2023-06-09T18:49:54.853Z,100058.41
2023-06-09T18:52:25.628Z,100057.58
2023-06-09T18:54:56.113Z,100057.09
2023-06-09T18:57:29.086Z,100054.36
2023-06-09T18:59:59.667Z,100047.05
2023-06-09T19:02:30.263Z,100054.55
2023-06-09T19:05:01.482Z,100055.77
2023-06-09T19:07:31.990Z,100061.52
2023-06-09T19:10:03.582Z,100063.77
2023-06-09T19:12:34.258Z,100065.35
2023-06-09T19:15:05.683Z,100063.69
2023-06-09T19:17:36.783Z,100068.23
2023-06-09T19:20:09.323Z,100074.48
2023-06-09T19:22:39.893Z,100077.09
2023-06-09T19:25:11.976Z,100079.88
2023-06-09T19:27:43.065Z,100084.21
2023-06-09T19:30:15.035Z,100092.57
2023-06-09T19:32:45.526Z,100095.21
2023-06-09T19:35:16.239Z,100094.04
2023-06-09T19:37:46.724Z,100092.67
2023-06-09T19:40:17.549Z,100091.86
2023-06-09T19:42:48.085Z,100093.48
2023-06-09T19:45:18.717Z,100096.14
2023-06-09T19:47:49.348Z,100096.54
2023-06-09T19:50:19.895Z,100096.42
2023-06-09T19:52:51.654Z,100094.02
2023-06-09T19:55:22.249Z,100088.27
2023-06-09T19:57:52.735Z,100088.27
2023-06-09T20:00:52.285Z,100086.23
2023-06-09T20:03:22.778Z,100086.48
2023-06-09T20:05:53.303Z,100089.14
2023-06-09T20:08:23.850Z,100086.05
2023-06-09T20:10:54.415Z,100086.90
2023-06-09T20:13:24.930Z,100085.88
2023-06-09T20:15:56.133Z,100080.16
2023-06-09T20:18:26.625Z,100082.77
2023-06-09T20:20:57.141Z,100081.04
2023-06-09T20:23:32.197Z,100080.54
2023-06-09T20:26:02.891Z,100083.87
2023-06-09T20:28:33.378Z,100079.40
2023-06-09T20:31:06.435Z,100079.60
2023-06-09T20:33:43.350Z,100081.20
2023-06-09T20:37:24.298Z,100082.09
2023-06-09T20:44:13.512Z,100086.41
2023-06-09T20:46:46.937Z,100086.61
2023-06-09T20:49:18.348Z,100091.77
2023-06-09T20:51:49.153Z,100097.14
2023-06-09T20:54:20.188Z,100092.82
2023-06-09T20:56:51.112Z,100090.94
2023-06-09T20:59:21.601Z,100092.20
2023-06-09T21:01:52.588Z,100087.21
2023-06-09T21:04:24.138Z,100094.02
2023-06-09T21:06:53.120Z,100097.48
2023-06-09T21:09:23.642Z,100102.04
2023-06-09T21:11:55.132Z,100111.06
2023-06-09T21:14:24.192Z,100114.39
2023-06-09T21:16:54.671Z,100114.59
2023-06-09T21:19:25.155Z,100119.50
2023-06-09T21:21:56.334Z,100123.89
2023-06-09T21:24:26.893Z,100122.19
2023-06-09T21:26:57.388Z,100118.52
2023-06-09T21:29:27.968Z,100117.68
2023-06-09T21:31:58.482Z,100118.91
2023-06-09T21:34:29.441Z,100122.76
2023-06-09T21:37:01.590Z,100131.48
2023-06-09T21:39:32.059Z,100129.44
2023-06-09T21:42:02.557Z,100128.43
2023-06-09T21:44:33.013Z,100122.90
2023-06-09T21:47:03.659Z,100114.57
2023-06-09T21:49:34.311Z,100112.67
2023-06-09T21:52:05.297Z,100106.64
2023-06-09T21:54:35.930Z,100104.25
2023-06-09T21:57:10.349Z,100106.52
2023-06-09T21:59:41.495Z,100099.44
2023-06-09T22:02:11.987Z,100098.27
2023-06-09T22:04:42.439Z,100101.92
2023-06-09T22:07:12.965Z,100100.87
2023-06-09T22:09:43.444Z,100096.53
2023-06-09T22:12:18.043Z,100091.87
2023-06-09T22:14:48.753Z,100085.66
2023-06-09T22:17:21.653Z,100089.84
2023-06-09T22:19:52.127Z,100091.93
2023-06-09T22:22:22.599Z,100092.98
2023-06-09T22:24:53.100Z,100097.66
2023-06-09T22:27:23.609Z,100102.20
2023-06-09T22:29:54.187Z,100103.44
2023-06-09T22:32:24.789Z,100102.75
2023-06-09T22:34:55.643Z,100104.70
2023-06-09T22:37:28.883Z,100101.63
2023-06-09T22:39:59.686Z,100101.48
2023-06-09T22:42:30.245Z,100107.41
2023-06-09T22:45:00.756Z,100112.27
2023-06-09T22:47:31.504Z,100112.61
2023-06-09T22:50:07.132Z,100112.10
2023-06-09T22:52:38.878Z,100111.23
2023-06-09T22:55:11.883Z,100108.13
2023-06-09T22:57:43.488Z,100112.48
2023-06-09T23:00:13.964Z,100114.58
2023-06-09T23:02:43.284Z,100111.83
2023-06-09T23:05:15.764Z,100112.52
2023-06-09T23:07:46.515Z,100109.41
2023-06-09T23:10:17.018Z,100109.23
2023-06-09T23:12:47.521Z,100112.88
2023-06-09T23:15:18.113Z,100109.95
2023-06-09T23:17:48.678Z,100113.63
2023-06-09T23:20:22.219Z,100108.14
2023-06-09T23:22:52.957Z,100107.28
2023-06-09T23:25:23.874Z,100102.75
2023-06-09T23:27:54.664Z,100104.64
2023-06-09T23:30:25.197Z,100102.23
2023-06-09T23:32:56.753Z,100096.69
2023-06-09T23:35:27.352Z,100096.02
2023-06-09T23:37:58.057Z,100095.02
2023-06-09T23:40:29.297Z,100097.81
2023-06-09T23:42:59.799Z,100098.52
2023-06-09T23:45:30.681Z,100100.08
2023-06-09T23:48:03.193Z,100101.15
2023-06-09T23:50:34.058Z,100105.70
2023-06-09T23:53:06.189Z,100105.02
2023-06-09T23:55:37.611Z,100107.31
2023-06-09T23:58:08.174Z,100112.21
